Flight Track Log - Related Links

Times and Time Zones

All times are in EDT time to prevent confusion due to time zone crossing. See the JBU917 flight status page for this flight to view local times or setup timezone preferences in your user account.

Time Position Orientation Groundspeed Altitude Reporting Facility
EDT Latitude Longitude Course Direction KTS MPH feet Rate Location/Type
Sun 06:04:49 AM 42.3500 -70.9833 203° Southwest 181 208 600  Level KA90
Sun 06:05:31 AM 42.3333 -70.9333 114° Southeast 214 246 1,800 2,176 Climbing KA90
Sun 06:06:31 AM 42.3333 -70.8500 90° East 241 277 4,300 2,200 Climbing KA90
Sun 06:07:00 AM 41.7642 -70.7834 213° Southwest  Level FlightAware Approximate
Sun 06:07:31 AM 42.3167 -70.7500 103° East 297 342 6,200  Level KA90
Sun 06:08:00 AM 41.7171 -70.8247 213° Southwest  Level FlightAware Approximate
Sun 06:08:17 AM 42.2931 -70.6914 119° Southeast 301 346 7,900  Level Boston Center
Sun 06:09:00 AM 41.6700 -70.8659 213° Southwest  Level FlightAware Approximate
Sun 06:09:29 AM 42.2111 -70.6489 159° South 288 331 10,400  Level Boston Center
Sun 06:10:00 AM 41.6202 -70.9004 203° Southwest  Level FlightAware Approximate
Sun 06:10:29 AM 42.1108 -70.6294 172° South 293 337 13,000  Level Boston Center
Sun 06:11:29 AM 42.0303 -70.6681 200° South 286 329 14,900 1,900 Climbing Boston Center
Sun 06:12:29 AM 41.9539 -70.7261 209° Southwest 297 342 16,800 1,875 Climbing Boston Center
Sun 06:13:53 AM 41.8656 -70.8206 219° Southwest 303 349 19,400 1,750 Climbing Boston Center
Sun 06:14:53 AM 41.7919 -70.9058 221° Southwest 318 366 21,000 1,300 Climbing Boston Center
Sun 06:15:53 AM 41.7219 -70.9856 220° Southwest 330 380 22,000 500 Climbing Boston Center
Sun 06:16:53 AM 41.6500 -71.0675 220° Southwest 340 391 22,000  Level Boston Center
Sun 06:17:53 AM 41.5739 -71.1442 217° Southwest 340 391 22,000  Level Boston Center
Sun 06:18:53 AM 41.4978 -71.2233 218° Southwest 346 398 22,000  Level Boston Center
Sun 06:19:53 AM 41.4278 -71.3050 221° Southwest 351 404 22,000  Level Boston Center
Sun 06:20:53 AM 41.3514 -71.3839 218° Southwest 351 404 22,000  Level Boston Center
Sun 06:21:53 AM 41.2792 -71.4650 220° Southwest 351 404 22,000  Level Boston Center
Sun 06:22:53 AM 41.2028 -71.5461 219° Southwest 351 404 22,000  Level Boston Center
Sun 06:23:53 AM 41.1536 -71.6544 239° Southwest 321 369 22,000  Level Boston Center
Sun 06:24:53 AM 41.1397 -71.7786 262° West 321 369 22,000  Level Boston Center
Sun 06:25:53 AM 41.1258 -71.9000 261° West 321 369 22,000  Level Boston Center
Sun 06:27:05 AM 41.1136 -72.0131 262° West 342 394 22,000 -45 Level Boston Center
Sun 06:28:05 AM 41.0914 -72.1564 258° West 342 394 21,900 -900 Descending Boston Center
Sun 06:29:05 AM 41.0622 -72.2694 251° West 337 388 20,200 -1,850 Descending Boston Center
Sun 06:30:05 AM 41.0333 -72.3906 252° West 325 374 18,200 -1,850 Descending Boston Center
Sun 06:31:05 AM 41.0042 -72.5006 251° West 325 374 16,500 -1,600 Descending Boston Center
Sun 06:32:05 AM 40.9811 -72.6050 254° West 315 362 15,000 -1,568 Descending Boston Center
Sun 06:32:56 AM 40.9500 -72.7000 247° West 300 345 13,600 -1,622 Descending New York TRACON
Sun 06:33:56 AM 40.9333 -72.8000 258° West 291 335 12,000 -762 Descending New York TRACON
Sun 06:35:02 AM 40.8667 -72.8667 217° Southwest 283 326 12,000  Level New York TRACON
Sun 06:35:56 AM 40.8000 -72.9167 210° Southwest 287 330 12,000 -850 Level New York TRACON
Sun 06:37:02 AM 40.7333 -72.9833 217° Southwest 285 328 10,300 -1,700 Descending New York TRACON
Sun 06:37:56 AM 40.7000 -73.0667 242° Southwest 275 316 8,600 -1,737 Descending New York TRACON
Sun 06:38:56 AM 40.6667 -73.1667 246° West 273 314 7,000 -1,600 Descending New York TRACON
Sun 06:39:56 AM 40.6333 -73.2500 242° Southwest 267 307 5,400 -1,550 Descending New York TRACON
Sun 06:40:56 AM 40.6000 -73.3333 242° Southwest 264 304 3,900 -1,095 Descending New York TRACON
Sun 06:42:02 AM 40.5667 -73.4333 246° West 259 298 3,100 -450 Descending New York TRACON
Sun 06:42:56 AM 40.5500 -73.5000 252° West 223 257 3,000 -53 Descending New York TRACON
Sun 06:43:56 AM 40.5667 -73.5667 288° West 206 237 3,000 -400 Level New York TRACON
Sun 06:44:56 AM 40.5833 -73.6333 288° West 177 204 2,200 -750 Descending New York TRACON
Sun 06:45:56 AM 40.6000 -73.6667 303° West 128 147 1,500 -667 Descending New York TRACON
Sun 06:47:02 AM 40.6167 -73.7167 294° West 127 146 800 -636 Descending New York TRACON
Sun 06:49:00 AM 40.6333 -73.7667 North  Level FlightAware Approximate

Login

Don't have an account? Register now (free) for customized features, flight alerts, and more!